createdAt,value
2022-08-19T00:00:22.009Z,5.38
2022-08-19T00:02:50.565Z,5.35
2022-08-19T00:05:21.284Z,5.78
2022-08-19T00:07:51.812Z,5.50
2022-08-19T00:10:21.765Z,4.80
2022-08-19T00:12:50.346Z,4.80
2022-08-19T00:15:21.501Z,5.07
2022-08-19T00:17:49.931Z,5.30
2022-08-19T00:20:23.265Z,4.90
2022-08-19T00:22:52.932Z,4.90
2022-08-19T00:25:29.849Z,6.07
2022-08-19T00:27:58.657Z,5.22
2022-08-19T00:30:28.050Z,5.00
2022-08-19T00:32:56.424Z,5.00
2022-08-19T00:35:28.066Z,5.03
2022-08-19T00:37:57.099Z,4.72
2022-08-19T00:40:26.040Z,4.10
2022-08-19T00:42:55.037Z,4.32
2022-08-19T00:45:25.649Z,4.10
2022-08-19T00:47:53.956Z,4.13
2022-08-19T00:50:25.348Z,3.63
2022-08-19T00:52:54.506Z,4.68
2022-08-19T00:55:26.514Z,5.32
2022-08-19T00:57:58.358Z,5.00
2022-08-19T01:00:28.644Z,6.38
2022-08-19T01:02:56.965Z,4.25
2022-08-19T01:05:29.714Z,4.72
2022-08-19T01:08:00.343Z,4.50
2022-08-19T01:10:36.067Z,4.80
2022-08-19T01:13:05.911Z,4.20
2022-08-19T01:15:36.342Z,5.18
2022-08-19T01:18:10.167Z,5.95
2022-08-19T01:20:41.077Z,5.10
2022-08-19T01:23:10.627Z,5.83
2022-08-19T01:25:44.439Z,4.97
2022-08-19T01:28:18.824Z,4.40
2022-08-19T01:31:01.763Z,4.75
2022-08-19T01:33:36.429Z,5.60
2022-08-19T01:36:13.723Z,6.10
2022-08-19T01:38:44.899Z,5.20
2022-08-19T01:41:13.685Z,6.80
2022-08-19T01:44:13.188Z,6.63
2022-08-19T01:46:30.449Z,4.82
2022-08-19T01:48:59.048Z,5.40
2022-08-19T01:51:27.370Z,7.00
2022-08-19T01:53:58.920Z,6.75
2022-08-19T01:56:27.717Z,7.35
2022-08-19T01:58:59.896Z,6.53
2022-08-19T02:01:28.117Z,6.97
2022-08-19T02:03:59.821Z,6.93
2022-08-19T02:06:28.213Z,7.55
2022-08-19T02:08:57.789Z,7.25
2022-08-19T02:11:28.431Z,7.55
2022-08-19T02:13:56.969Z,7.80
2022-08-19T02:16:25.515Z,7.63
2022-08-19T02:18:53.898Z,8.60
2022-08-19T02:21:24.450Z,8.77
2022-08-19T02:23:53.041Z,8.93
2022-08-19T02:26:22.436Z,9.67
2022-08-19T02:28:50.817Z,9.75
2022-08-19T02:31:25.610Z,10.80
2022-08-19T02:33:56.551Z,9.20
2022-08-19T02:36:26.111Z,9.48
2022-08-19T02:38:54.553Z,9.47
2022-08-19T02:41:28.788Z,11.25
2022-08-19T02:44:30.017Z,11.00
2022-08-19T02:46:48.595Z,9.18
2022-08-19T02:49:17.250Z,11.48
2022-08-19T02:51:47.189Z,9.87
2022-08-19T02:54:16.757Z,10.10
2022-08-19T02:56:47.408Z,10.93
2022-08-19T02:59:15.924Z,10.57
2022-08-19T03:01:44.583Z,12.88
2022-08-19T03:04:15.492Z,12.00
2022-08-19T03:06:46.159Z,13.85
2022-08-19T03:09:14.716Z,12.43
2022-08-19T03:11:42.927Z,12.35
2022-08-19T03:14:12.624Z,14.75
2022-08-19T03:16:45.483Z,15.23
2022-08-19T03:19:13.879Z,14.82
2022-08-19T03:21:42.013Z,14.25
2022-08-19T03:24:10.735Z,13.88
2022-08-19T03:26:42.140Z,15.60
2022-08-19T03:29:13.229Z,17.00
2022-08-19T03:31:52.512Z,15.85
2022-08-19T03:34:23.435Z,17.08
2022-08-19T03:36:51.834Z,18.02
2022-08-19T03:39:20.317Z,17.63
2022-08-19T03:41:50.054Z,18.40
2022-08-19T03:44:39.703Z,21.45
2022-08-19T03:47:08.302Z,19.02
2022-08-19T03:49:37.546Z,18.75
2022-08-19T03:52:08.602Z,19.75
2022-08-19T03:54:38.931Z,20.97
2022-08-19T03:57:08.615Z,19.52
2022-08-19T03:59:41.826Z,19.63
2022-08-19T04:02:12.470Z,19.95
2022-08-19T04:04:44.077Z,20.15
2022-08-19T04:07:14.572Z,20.97
2022-08-19T04:09:42.654Z,19.35
2022-08-19T04:12:10.831Z,18.92
2022-08-19T04:14:38.970Z,19.77
2022-08-19T04:17:08.372Z,23.30
2022-08-19T04:19:38.163Z,21.13
2022-08-19T04:22:07.831Z,19.35
2022-08-19T04:24:37.029Z,20.65
2022-08-19T04:27:07.134Z,20.20
2022-08-19T04:29:35.677Z,20.17
2022-08-19T04:32:09.279Z,20.53
2022-08-19T04:35:15.765Z,21.08
2022-08-19T04:37:35.174Z,22.17
2022-08-19T04:40:23.742Z,22.33
2022-08-19T04:42:52.351Z,22.00
2022-08-19T04:45:22.834Z,21.90
2022-08-19T04:47:58.181Z,19.77
2022-08-19T04:50:29.420Z,22.10
2022-08-19T04:52:57.708Z,19.70
2022-08-19T04:55:27.396Z,20.83
2022-08-19T04:57:55.591Z,22.33
2022-08-19T05:00:24.075Z,19.67
2022-08-19T05:02:52.169Z,25.40
2022-08-19T05:05:20.716Z,21.45
2022-08-19T05:07:50.319Z,20.05
2022-08-19T05:10:18.468Z,24.80
2022-08-19T05:12:46.511Z,31.73
2022-08-19T05:15:14.781Z,24.48
2022-08-19T05:18:03.345Z,23.65
2022-08-19T05:20:48.982Z,23.48
2022-08-19T05:23:20.448Z,21.10
2022-08-19T05:25:48.806Z,23.42
2022-08-19T05:28:16.871Z,23.90
2022-08-19T05:30:47.498Z,22.00
2022-08-19T05:33:15.804Z,20.20
2022-08-19T05:35:44.922Z,23.47
2022-08-19T05:38:13.659Z,21.33
2022-08-19T05:40:43.744Z,19.88
2022-08-19T05:43:11.754Z,22.70
2022-08-19T05:45:44.251Z,22.40
2022-08-19T05:48:13.349Z,20.97
2022-08-19T05:50:42.937Z,24.98
2022-08-19T05:53:11.273Z,24.25
2022-08-19T05:55:40.624Z,23.23
2022-08-19T05:58:10.054Z,24.60
2022-08-19T06:00:39.545Z,24.00
2022-08-19T06:03:09.638Z,22.50
2022-08-19T06:05:49.481Z,23.10
2022-08-19T06:08:20.616Z,28.83
2022-08-19T06:11:15.206Z,24.45
2022-08-19T06:13:44.903Z,24.57
2022-08-19T06:16:13.331Z,24.48
2022-08-19T06:18:41.748Z,24.73
2022-08-19T06:21:10.230Z,24.75
2022-08-19T06:23:38.257Z,23.70
2022-08-19T06:26:06.653Z,26.43
2022-08-19T06:28:34.957Z,30.17
2022-08-19T06:31:09.581Z,26.75
2022-08-19T06:33:38.335Z,27.83
2022-08-19T06:36:07.197Z,25.13
2022-08-19T06:38:35.382Z,28.30
2022-08-19T06:41:07.920Z,27.73
2022-08-19T06:43:42.257Z,31.42
2022-08-19T06:46:17.153Z,28.80
2022-08-19T06:48:45.866Z,28.13
2022-08-19T06:51:19.154Z,28.70
2022-08-19T06:53:48.171Z,30.58
2022-08-19T06:56:18.907Z,33.53
2022-08-19T06:58:47.659Z,30.17
2022-08-19T07:01:17.051Z,29.13
2022-08-19T07:03:45.400Z,30.53
2022-08-19T07:06:43.664Z,28.38
2022-08-19T07:09:08.162Z,28.75
2022-08-19T07:11:36.833Z,30.80
2022-08-19T07:14:07.467Z,33.30
2022-08-19T07:16:50.073Z,32.03
2022-08-19T07:19:19.270Z,32.05
2022-08-19T07:21:53.586Z,36.78
2022-08-19T07:24:24.745Z,34.75
2022-08-19T07:26:55.268Z,31.90
2022-08-19T07:29:25.781Z,32.77
2022-08-19T07:32:00.176Z,35.22
2022-08-19T07:34:30.869Z,37.38
2022-08-19T07:37:00.550Z,33.78
2022-08-19T07:39:30.941Z,34.63
2022-08-19T07:42:00.535Z,36.50
2022-08-19T07:44:29.098Z,34.67
2022-08-19T07:47:01.056Z,34.38
2022-08-19T07:49:51.003Z,39.60
2022-08-19T07:52:22.365Z,35.67
2022-08-19T07:54:50.631Z,35.33
2022-08-19T07:57:20.152Z,33.92
2022-08-19T07:59:48.443Z,35.30
2022-08-19T08:02:18.504Z,42.20
2022-08-19T08:05:07.207Z,39.40
2022-08-19T08:07:53.167Z,40.63
2022-08-19T08:10:21.867Z,39.35
2022-08-19T08:13:09.918Z,37.22
2022-08-19T08:15:42.974Z,40.80
2022-08-19T08:22:45.668Z,39.27
2022-08-19T08:25:18.461Z,36.85
2022-08-19T08:27:53.686Z,35.97
2022-08-19T08:30:26.974Z,33.42
2022-08-19T08:33:02.672Z,32.97
2022-08-19T08:35:38.040Z,36.67
2022-08-19T08:38:06.573Z,35.80
2022-08-19T08:40:45.133Z,38.20
2022-08-19T08:43:24.617Z,38.08
2022-08-19T08:45:58.356Z,35.22
2022-08-19T08:48:34.825Z,35.00
2022-08-19T08:51:07.177Z,40.67
2022-08-19T08:53:41.925Z,36.83
2022-08-19T08:56:13.439Z,35.38
2022-08-19T08:58:54.768Z,40.85
2022-08-19T09:01:23.532Z,37.33
2022-08-19T09:03:52.003Z,43.15
2022-08-19T09:06:32.502Z,41.92
2022-08-19T09:09:12.278Z,36.22
2022-08-19T09:11:58.926Z,39.95
2022-08-19T09:14:51.132Z,42.83
2022-08-19T09:17:22.017Z,36.40
2022-08-19T09:19:55.970Z,40.83
2022-08-19T09:22:27.772Z,37.95
2022-08-19T09:24:56.928Z,39.30
2022-08-19T09:27:41.802Z,43.43
2022-08-19T09:30:14.596Z,40.22
2022-08-19T09:32:44.445Z,38.15
2022-08-19T09:35:13.537Z,48.10
2022-08-19T09:37:43.672Z,38.75
2022-08-19T09:40:13.520Z,38.73
2022-08-19T09:42:50.050Z,42.58
2022-08-19T09:45:23.387Z,41.90
2022-08-19T09:47:54.130Z,39.63
2022-08-19T09:50:24.201Z,43.47
2022-08-19T09:52:58.103Z,44.47
2022-08-19T09:55:32.079Z,39.42
2022-08-19T09:58:02.952Z,43.17
2022-08-19T10:00:31.954Z,39.78
2022-08-19T10:03:01.018Z,40.05
2022-08-19T10:05:48.684Z,40.07
2022-08-19T10:08:20.663Z,40.95
2022-08-19T10:10:49.782Z,37.53
2022-08-19T10:13:21.438Z,35.25
2022-08-19T10:15:51.595Z,35.50
2022-08-19T10:18:21.821Z,36.30
2022-08-19T10:20:52.807Z,36.25
2022-08-19T10:23:23.102Z,37.72
2022-08-19T10:26:02.115Z,34.78
2022-08-19T10:28:30.470Z,38.80
2022-08-19T10:30:58.871Z,38.17
2022-08-19T10:33:53.027Z,35.58
2022-08-19T10:36:19.829Z,35.25
2022-08-19T10:38:56.194Z,34.05
2022-08-19T10:41:26.973Z,32.63
2022-08-19T10:43:56.057Z,32.53
2022-08-19T10:46:25.681Z,31.48
2022-08-19T10:48:54.671Z,33.10
2022-08-19T10:51:47.921Z,35.55
2022-08-19T10:54:33.372Z,74.05
2022-08-19T10:57:02.200Z,39.67
2022-08-19T10:59:35.779Z,27.85
2022-08-19T11:02:06.352Z,29.13
2022-08-19T11:04:35.735Z,23.95
2022-08-19T11:07:04.756Z,24.88
2022-08-19T11:09:40.627Z,24.87
2022-08-19T11:12:13.148Z,25.58
2022-08-19T11:14:41.565Z,26.35
2022-08-19T11:17:10.324Z,26.27
2022-08-19T11:19:38.656Z,26.85
2022-08-19T11:22:07.043Z,20.37
2022-08-19T11:24:38.779Z,18.20
2022-08-19T11:27:10.033Z,18.70
2022-08-19T11:29:44.266Z,20.60
2022-08-19T11:32:14.757Z,18.17
2022-08-19T11:34:43.223Z,19.80
2022-08-19T11:37:11.674Z,17.55
2022-08-19T11:39:41.088Z,20.90
2022-08-19T11:42:23.527Z,17.20
2022-08-19T11:44:51.924Z,16.90
2022-08-19T11:47:20.370Z,12.67
2022-08-19T11:49:48.992Z,10.88
2022-08-19T11:52:17.429Z,10.68
2022-08-19T11:54:46.809Z,9.88
2022-08-19T11:57:17.800Z,13.00
2022-08-19T11:59:51.095Z,9.30
2022-08-19T12:02:20.078Z,8.48
2022-08-19T12:04:48.894Z,8.27
2022-08-19T12:07:17.552Z,10.38
2022-08-19T12:09:48.642Z,12.27
2022-08-19T12:12:20.246Z,13.63
2022-08-19T12:14:48.741Z,13.35
2022-08-19T12:17:16.762Z,17.63
2022-08-19T12:19:45.391Z,14.63
2022-08-19T12:22:13.774Z,15.82
2022-08-19T12:24:42.164Z,14.77
2022-08-19T12:27:12.738Z,18.45
2022-08-19T12:29:42.404Z,16.42
2022-08-19T12:32:12.176Z,15.32
2022-08-19T12:34:40.979Z,12.82
2022-08-19T12:37:09.479Z,13.27
2022-08-19T12:39:41.104Z,11.30
2022-08-19T12:42:09.777Z,11.35
2022-08-19T12:44:41.760Z,10.75
2022-08-19T12:47:12.240Z,14.85
2022-08-19T12:49:52.270Z,34.23
2022-08-19T12:52:23.790Z,11.38
2022-08-19T12:54:56.888Z,8.43
2022-08-19T12:57:45.248Z,8.60
2022-08-19T13:00:22.935Z,9.13
2022-08-19T13:02:53.368Z,9.40
2022-08-19T13:05:24.619Z,8.38
2022-08-19T13:07:56.848Z,8.23
2022-08-19T13:10:27.411Z,8.93
2022-08-19T13:12:56.513Z,7.25
2022-08-19T13:15:26.128Z,8.83
2022-08-19T13:17:56.744Z,7.25
2022-08-19T13:20:25.780Z,7.00
2022-08-19T13:22:54.371Z,7.47
2022-08-19T13:25:23.424Z,7.90
2022-08-19T13:27:52.904Z,7.70
2022-08-19T13:30:39.544Z,8.35
2022-08-19T13:33:12.753Z,8.68
2022-08-19T13:35:47.760Z,8.77
2022-08-19T13:38:17.375Z,8.45
2022-08-19T13:40:45.848Z,7.63
2022-08-19T13:43:23.439Z,7.95
2022-08-19T13:45:56.285Z,10.23
2022-08-19T13:48:29.832Z,8.90
2022-08-19T13:50:58.167Z,10.35
2022-08-19T13:53:26.846Z,8.87
2022-08-19T13:55:55.314Z,8.77
2022-08-19T13:58:24.299Z,10.48
2022-08-19T14:00:52.766Z,10.55
2022-08-19T14:03:21.218Z,10.52
2022-08-19T14:05:53.310Z,10.93
2022-08-19T14:08:22.314Z,12.63
2022-08-19T14:10:50.884Z,14.10
2022-08-19T14:13:22.765Z,12.18
2022-08-19T14:15:51.330Z,12.45
2022-08-19T14:18:23.650Z,14.53
2022-08-19T14:20:57.685Z,14.40
2022-08-19T14:23:27.277Z,14.52
2022-08-19T14:26:00.758Z,14.38
2022-08-19T14:28:31.880Z,14.30
2022-08-19T14:31:00.979Z,14.50
2022-08-19T14:33:30.575Z,15.55
2022-08-19T14:36:01.231Z,14.73
2022-08-19T14:38:32.439Z,24.27
2022-08-19T14:41:13.980Z,21.77
2022-08-19T14:43:42.532Z,37.13
2022-08-19T14:46:11.298Z,15.02
2022-08-19T14:48:41.570Z,31.45
2022-08-19T14:51:11.584Z,21.52
2022-08-19T14:53:39.868Z,26.40
2022-08-19T14:56:12.320Z,26.77
2022-08-19T14:58:41.155Z,17.50
2022-08-19T15:01:10.313Z,15.98
2022-08-19T15:03:48.881Z,13.45
2022-08-19T15:06:18.440Z,15.73
2022-08-19T15:08:47.026Z,12.70
2022-08-19T15:11:21.877Z,12.02
2022-08-19T15:13:53.999Z,14.80
2022-08-19T15:16:27.230Z,14.85
2022-08-19T15:19:12.830Z,13.82
2022-08-19T15:21:42.237Z,15.83
2022-08-19T15:24:13.263Z,17.83
2022-08-19T15:26:43.698Z,17.17
2022-08-19T15:29:13.899Z,16.27
2022-08-19T15:31:45.548Z,14.90
2022-08-19T15:34:14.004Z,18.37
2022-08-19T15:36:45.683Z,12.85
2022-08-19T15:39:47.236Z,15.68
2022-08-19T15:42:38.794Z,31.50
2022-08-19T15:45:07.690Z,15.68
2022-08-19T15:47:36.148Z,13.43
2022-08-19T15:50:10.757Z,13.38
2022-08-19T15:52:49.906Z,9.95
2022-08-19T15:55:32.341Z,9.18
2022-08-19T15:58:46.371Z,10.95
2022-08-19T16:01:43.690Z,10.23
2022-08-19T16:04:29.605Z,10.95
2022-08-19T16:07:00.248Z,10.80
2022-08-19T16:09:44.474Z,14.30
2022-08-19T16:12:12.863Z,12.18
2022-08-19T16:14:41.223Z,12.60
2022-08-19T16:17:11.783Z,10.63
2022-08-19T16:19:42.612Z,12.10
2022-08-19T16:22:11.097Z,9.45
2022-08-19T16:24:39.476Z,10.40
2022-08-19T16:27:08.869Z,9.33
2022-08-19T16:29:38.966Z,10.43
2022-08-19T16:32:10.816Z,10.35
2022-08-19T16:34:40.116Z,8.88
2022-08-19T16:37:08.635Z,11.27
2022-08-19T16:39:37.024Z,8.50
2022-08-19T16:42:07.623Z,9.95
2022-08-19T16:44:39.366Z,10.23
2022-08-19T16:47:07.920Z,10.85
2022-08-19T16:49:54.402Z,9.95
2022-08-19T16:52:27.268Z,11.23
2022-08-19T16:54:55.778Z,8.55
2022-08-19T16:57:24.796Z,11.13
2022-08-19T16:59:54.437Z,11.98
2022-08-19T17:02:23.673Z,11.43
2022-08-19T17:04:59.264Z,10.87
2022-08-19T17:07:28.780Z,11.65
2022-08-19T17:09:58.025Z,11.65
2022-08-19T17:12:30.261Z,12.95
2022-08-19T17:15:03.780Z,10.30
2022-08-19T17:17:32.873Z,12.87
2022-08-19T17:20:02.384Z,11.35
2022-08-19T17:22:31.164Z,13.25
2022-08-19T17:25:01.899Z,12.43
2022-08-19T17:30:25.752Z,10.80
2022-08-19T17:36:16.361Z,10.52
2022-08-19T17:38:47.362Z,10.95
2022-08-19T17:41:17.078Z,13.95
2022-08-19T17:43:52.433Z,12.10
2022-08-19T17:46:32.595Z,11.38
2022-08-19T17:49:01.125Z,13.30
2022-08-19T17:51:42.500Z,11.23
2022-08-19T17:54:12.883Z,11.35
2022-08-19T17:56:41.762Z,12.03
2022-08-19T17:59:13.779Z,12.40
2022-08-19T18:01:53.576Z,12.73
2022-08-19T18:04:24.114Z,11.60
2022-08-19T18:06:54.341Z,34.65
2022-08-19T18:09:25.965Z,11.80
2022-08-19T18:11:57.120Z,11.63
2022-08-19T18:14:33.648Z,12.88
2022-08-19T18:17:09.642Z,13.75
2022-08-19T18:19:41.400Z,10.93
2022-08-19T18:22:12.658Z,14.67
2022-08-19T18:24:45.850Z,14.48
2022-08-19T18:27:19.417Z,12.15
2022-08-19T18:29:48.006Z,13.70
2022-08-19T18:32:23.861Z,10.27
2022-08-19T18:34:53.306Z,9.93
2022-08-19T18:37:22.584Z,11.57
2022-08-19T18:40:08.583Z,10.95
2022-08-19T18:42:54.361Z,11.68
2022-08-19T18:45:43.568Z,11.52
2022-08-19T18:48:42.274Z,9.83
2022-08-19T18:51:12.032Z,10.80
2022-08-19T18:53:44.662Z,10.00
2022-08-19T18:56:15.755Z,24.38
2022-08-19T18:58:45.267Z,23.02
2022-08-19T19:01:16.282Z,21.73
2022-08-19T19:03:52.881Z,12.32
2022-08-19T19:06:29.858Z,22.85
2022-08-19T19:09:01.678Z,20.08
2022-08-19T19:11:32.563Z,20.38
2022-08-19T19:14:03.065Z,16.43
2022-08-19T19:16:31.791Z,17.02
2022-08-19T19:19:01.148Z,22.58
2022-08-19T19:21:34.392Z,18.33
2022-08-19T19:24:03.008Z,26.08
2022-08-19T19:26:31.157Z,15.40
2022-08-19T19:28:59.826Z,12.70
2022-08-19T19:31:28.833Z,20.15
2022-08-19T19:34:00.387Z,14.48
2022-08-19T19:36:29.824Z,12.50
2022-08-19T19:38:58.154Z,12.53
2022-08-19T19:41:26.526Z,13.15
2022-08-19T19:44:23.205Z,12.00
2022-08-19T19:46:45.226Z,13.05
2022-08-19T19:49:14.212Z,14.48
2022-08-19T19:51:44.339Z,37.23
2022-08-19T19:54:14.572Z,13.57
2022-08-19T19:56:45.426Z,25.10
2022-08-19T19:59:13.784Z,20.92
2022-08-19T20:01:46.116Z,16.40
2022-08-19T20:04:17.687Z,13.33
2022-08-19T20:06:47.852Z,12.93
2022-08-19T20:09:19.731Z,12.43
2022-08-19T20:11:54.305Z,12.75
2022-08-19T20:14:26.430Z,10.82
2022-08-19T20:16:57.326Z,13.97
2022-08-19T20:19:35.801Z,11.23
2022-08-19T20:22:07.091Z,10.95
2022-08-19T20:24:36.476Z,12.30
2022-08-19T20:27:06.809Z,11.65
2022-08-19T20:29:38.894Z,11.87
2022-08-19T20:32:09.844Z,14.23
2022-08-19T20:34:38.175Z,14.48
2022-08-19T20:37:09.573Z,12.43
2022-08-19T20:39:38.249Z,13.98
2022-08-19T20:42:07.016Z,13.67
2022-08-19T20:44:35.584Z,13.90
2022-08-19T20:47:04.332Z,16.00
2022-08-19T20:49:33.158Z,12.93
2022-08-19T20:52:01.642Z,14.93
2022-08-19T20:54:31.505Z,15.30
2022-08-19T20:56:59.895Z,14.55
2022-08-19T20:59:28.325Z,14.50
2022-08-19T21:01:57.491Z,14.05
2022-08-19T21:04:26.778Z,13.15
2022-08-19T21:06:56.519Z,14.87
2022-08-19T21:09:24.841Z,15.70
2022-08-19T21:11:54.484Z,14.55
2022-08-19T21:14:23.173Z,18.10
2022-08-19T21:16:51.512Z,15.63
2022-08-19T21:19:23.785Z,13.80
2022-08-19T21:21:52.574Z,14.77
2022-08-19T21:24:20.961Z,14.93
2022-08-19T21:26:51.401Z,15.35
2022-08-19T21:29:21.546Z,16.38
2022-08-19T21:32:44.357Z,14.80
2022-08-19T21:35:11.232Z,14.32
2022-08-19T21:37:46.991Z,17.02
2022-08-19T21:40:16.641Z,18.50
2022-08-19T21:42:45.117Z,15.43
2022-08-19T21:45:17.394Z,17.23
2022-08-19T21:47:46.059Z,15.82
2022-08-19T21:50:14.404Z,15.80
2022-08-19T21:52:42.761Z,17.55
2022-08-19T21:55:12.224Z,15.23
2022-08-19T21:57:41.514Z,16.43
2022-08-19T22:00:17.503Z,17.45
2022-08-19T22:02:46.960Z,14.52
2022-08-19T22:05:15.493Z,17.33
2022-08-19T22:07:43.870Z,15.48
2022-08-19T22:10:12.605Z,15.97
2022-08-19T22:12:47.273Z,16.45
2022-08-19T22:15:22.355Z,16.73
2022-08-19T22:17:50.978Z,14.80
2022-08-19T22:20:22.669Z,16.58
2022-08-19T22:22:52.721Z,18.03
2022-08-19T22:25:29.330Z,16.50
2022-08-19T22:28:02.026Z,19.00
2022-08-19T22:30:38.966Z,17.10
2022-08-19T22:33:16.890Z,17.35
2022-08-19T22:35:46.982Z,18.83
2022-08-19T22:38:15.767Z,17.92
2022-08-19T22:40:47.415Z,20.67
2022-08-19T22:43:17.761Z,18.80
2022-08-19T22:45:48.713Z,18.90
2022-08-19T22:48:19.211Z,20.27
2022-08-19T22:51:08.720Z,22.55
2022-08-19T22:53:38.336Z,21.50
2022-08-19T22:56:10.851Z,20.58
2022-08-19T22:58:43.417Z,21.60
2022-08-19T23:01:27.168Z,23.47
2022-08-19T23:03:58.538Z,21.50
2022-08-19T23:06:31.268Z,22.23
2022-08-19T23:09:02.463Z,26.00
2022-08-19T23:11:35.718Z,23.70
2022-08-19T23:14:08.739Z,23.30
2022-08-19T23:16:38.257Z,23.73
2022-08-19T23:19:08.217Z,22.10
2022-08-19T23:21:37.256Z,24.67
2022-08-19T23:24:06.063Z,25.92
2022-08-19T23:26:36.028Z,24.10
2022-08-19T23:29:23.389Z,24.15
2022-08-19T23:31:52.857Z,24.80
2022-08-19T23:34:21.660Z,24.67
2022-08-19T23:36:50.481Z,26.02
2022-08-19T23:39:19.373Z,27.37
2022-08-19T23:41:48.286Z,26.52
2022-08-19T23:44:17.437Z,28.30
2022-08-19T23:46:55.114Z,25.30
2022-08-19T23:49:26.280Z,29.80
2022-08-19T23:51:55.602Z,24.60
2022-08-19T23:54:35.219Z,24.70
2022-08-19T23:57:14.137Z,27.33
2022-08-19T23:59:45.055Z,27.38
